Time;durP1;ratioP1;P1;durP2;ratioP2;P2;SDS_P1;SDS_P2;PMS_P1;PMS_P2;Temp;Humidity;BMP_temperature;BMP_pressure;BME280_temperature;BME280_humidity;BME280_pressure;Samples;Min_cycle;Max_cycle;Signal;HPM_P1;HPM_P2
2021/01/11 00:00:19;;;;;;;37.00;16.55;;;2.00;99.90;;;2.19;85.90;101315.72;4995464;28;20113;-81
2021/01/11 00:02:45;;;;;;;34.00;16.30;;;2.00;99.90;;;2.22;85.29;101311.56;4995550;28;20044;-79
2021/01/11 00:05:13;;;;;;;30.25;14.40;;;2.00;99.90;;;2.25;85.09;101313.78;4995966;28;20446;-81
2021/01/11 00:07:42;;;;;;;30.33;16.13;;;2.00;99.90;;;2.22;85.91;101306.88;4996026;28;20075;-81
2021/01/11 00:10:13;;;;;;;34.13;15.82;;;2.00;99.90;;;2.25;85.78;101297.22;4995861;28;20033;-85
2021/01/11 00:12:44;;;;;;;31.33;15.70;;;2.00;99.90;;;2.14;85.69;101288.19;5013753;28;20454;-84
2021/01/11 00:15:17;;;;;;;31.60;15.90;;;1.90;99.90;;;2.03;86.12;101287.44;4996298;28;20026;-83
2021/01/11 00:17:44;;;;;;;35.47;16.73;;;1.90;99.90;;;2.01;86.48;101289.69;5013848;28;20080;-81
2021/01/11 00:20:12;;;;;;;32.97;15.02;;;1.90;99.90;;;2.00;86.69;101285.25;4996028;28;20030;-81
2021/01/11 00:22:38;;;;;;;30.77;15.07;;;1.80;99.90;;;2.00;86.56;101288.03;4995669;28;20042;-81
2021/01/11 00:25:06;;;;;;;37.45;16.67;;;1.80;99.90;;;1.99;86.63;101288.31;5012912;28;20033;-83
2021/01/11 00:27:31;;;;;;;31.42;16.02;;;1.80;99.90;;;1.95;86.91;101290.00;4995530;28;20387;-81
2021/01/11 00:29:57;;;;;;;30.85;16.40;;;1.70;99.90;;;1.84;87.75;101286.47;4995323;28;20057;-83
2021/01/11 00:32:23;;;;;;;29.95;16.00;;;1.60;99.90;;;1.84;87.55;101277.38;4995414;28;20471;-80
2021/01/11 00:34:49;;;;;;;33.38;15.27;;;1.60;99.90;;;1.72;88.04;101274.97;4994924;28;20133;-83
2021/01/11 00:37:15;;;;;;;37.13;16.90;;;1.60;99.90;;;1.75;88.32;101279.09;5012484;28;20604;-81
2021/01/11 00:39:41;;;;;;;28.65;15.68;;;1.60;99.90;;;1.82;87.73;101277.69;4994576;28;20042;-82
2021/01/11 00:42:06;;;;;;;31.83;16.67;;;1.60;99.90;;;1.87;87.64;101280.38;4994454;28;20033;-81
2021/01/11 00:44:32;;;;;;;28.02;15.18;;;1.60;99.90;;;1.87;87.70;101282.31;5012148;28;20594;-81
2021/01/11 00:47:01;;;;;;;31.35;17.58;;;1.60;99.90;;;1.93;87.65;101282.00;4997802;28;20041;-80
2021/01/11 00:49:27;;;;;;;33.22;15.85;;;1.60;99.90;;;1.91;87.35;101286.16;4998547;28;20037;-80
2021/01/11 00:51:54;;;;;;;34.70;16.20;;;1.70;99.90;;;1.96;87.44;101289.69;4998665;28;20026;-82
2021/01/11 00:54:22;;;;;;;28.08;15.38;;;1.70;99.90;;;1.98;87.13;101284.75;4998612;28;20029;-79
2021/01/11 00:56:47;;;;;;;30.55;15.10;;;1.70;99.90;;;1.98;87.46;101287.50;4998744;28;20065;-81
2021/01/11 00:59:13;;;;;;;27.58;15.32;;;1.70;99.90;;;2.01;87.38;101284.16;4998371;28;20046;-81
2021/01/11 01:01:51;;;;;;;29.73;14.55;;;1.80;99.90;;;2.02;86.95;101285.78;5016137;28;20103;-83
2021/01/11 01:04:21;;;;;;;28.85;15.45;;;1.80;99.90;;;2.03;87.36;101281.94;4998575;28;20037;-82
2021/01/11 01:06:47;;;;;;;30.85;14.43;;;1.80;99.90;;;2.05;86.83;101282.50;4998840;28;20111;-82
2021/01/11 01:09:14;;;;;;;32.42;14.75;;;1.80;99.90;;;2.05;87.16;101284.41;4998098;28;20029;-80
2021/01/11 01:11:42;;;;;;;31.05;15.40;;;1.80;99.90;;;2.01;87.25;101281.41;5000912;28;20440;-81
2021/01/11 01:14:10;;;;;;;31.40;16.30;;;1.80;99.90;;;2.00;87.48;101282.50;4999536;28;20307;-81
2021/01/11 01:16:36;;;;;;;29.88;14.95;;;1.80;99.90;;;2.05;87.15;101292.69;4999350;28;20030;-80
2021/01/11 01:19:03;;;;;;;31.20;16.02;;;1.80;99.90;;;2.08;86.87;101292.09;5017074;28;20038;-81
2021/01/11 01:21:29;;;;;;;28.20;14.80;;;1.80;99.90;;;2.07;86.81;101295.97;4999203;28;20038;-81
2021/01/11 01:23:55;;;;;;;30.27;16.48;;;1.80;99.90;;;2.04;86.85;101289.09;5004306;28;20044;-81
2021/01/11 01:26:22;;;;;;;29.13;15.63;;;1.90;99.90;;;2.09;86.80;101294.56;5009224;28;20061;-82
2021/01/11 01:28:48;;;;;;;33.53;16.42;;;1.90;99.90;;;2.07;86.68;101288.53;5001263;28;20065;-81
2021/01/11 01:31:14;;;;;;;33.08;16.58;;;1.90;99.90;;;2.15;86.39;101273.31;4999119;28;20034;-80
2021/01/11 01:33:42;;;;;;;31.50;16.80;;;1.90;99.90;;;2.13;86.28;101283.78;4999364;28;20088;-80
2021/01/11 01:36:08;;;;;;;34.75;17.10;;;1.90;99.90;;;2.10;86.28;101279.69;5016301;28;20566;-80
2021/01/11 01:38:33;;;;;;;38.78;17.42;;;1.90;99.90;;;2.07;86.60;101276.69;5015163;28;20065;-81
2021/01/11 01:40:59;;;;;;;35.55;17.38;;;1.90;99.90;;;2.12;85.78;101277.44;4998617;28;20049;-81
2021/01/11 01:43:25;;;;;;;36.65;17.15;;;1.90;99.90;;;2.12;85.94;101271.94;4998830;28;20045;-80
2021/01/11 01:45:51;;;;;;;37.80;18.20;;;1.90;99.90;;;2.15;86.15;101272.50;4998882;28;20448;-81
2021/01/11 01:48:17;;;;;;;41.00;20.55;;;1.90;99.90;;;2.17;86.21;101293.16;4998639;28;20048;-80
2021/01/11 01:50:44;;;;;;;39.15;19.27;;;1.90;99.90;;;2.16;86.15;101283.22;4998259;28;20386;-81
2021/01/11 01:53:09;;;;;;;33.63;18.30;;;1.90;99.90;;;2.09;86.66;101286.28;4998646;28;20057;-81
2021/01/11 01:55:38;;;;;;;39.10;20.00;;;1.90;99.90;;;2.07;86.59;101283.00;5016473;28;20457;-81
2021/01/11 01:58:10;;;;;;;37.25;19.70;;;1.90;99.90;;;2.12;86.24;101282.97;5015235;28;20065;-82
2021/01/11 02:00:36;;;;;;;37.78;20.13;;;1.90;99.90;;;2.17;85.76;101286.81;5015870;28;20042;-80
2021/01/11 02:03:02;;;;;;;45.30;20.48;;;1.90;99.90;;;2.18;85.98;101282.94;5016185;28;20056;-80
2021/01/11 02:05:28;;;;;;;40.83;20.70;;;2.00;99.90;;;2.14;86.29;101282.69;4998490;28;20401;-82
2021/01/11 02:08:08;;;;;;;37.13;20.13;;;1.90;99.90;;;2.12;86.82;101290.41;4998593;28;20030;-81
2021/01/11 02:10:54;;;;;;;45.03;21.08;;;1.90;99.90;;;2.15;86.27;101289.84;4998263;28;20030;-80
2021/01/11 02:13:32;;;;;;;45.50;22.00;;;1.90;99.90;;;2.15;86.38;101272.50;4998232;28;20151;-81
2021/01/11 02:16:19;;;;;;;42.63;20.40;;;1.90;99.90;;;2.08;87.11;101279.16;4998982;28;20033;-85
2021/01/11 02:19:19;;;;;;;40.45;21.38;;;1.80;99.90;;;2.05;86.78;101274.22;5001898;28;20026;-82
2021/01/11 02:22:20;;;;;;;44.28;21.77;;;1.80;99.90;;;2.21;85.93;101274.09;5016125;28;20037;-80
2021/01/11 02:25:37;;;;;;;40.50;20.20;;;1.80;99.90;;;2.15;86.57;101275.25;4998154;28;20086;-79
2021/01/11 02:28:28;;;;;;;38.67;20.77;;;1.80;99.90;;;2.18;86.29;101274.69;4998418;28;20026;-81
2021/01/11 02:30:59;;;;;;;46.63;20.48;;;1.80;99.90;;;2.18;85.91;101267.25;4997837;28;20021;-80
2021/01/11 02:33:29;;;;;;;35.95;20.15;;;1.80;99.90;;;2.22;85.53;101264.69;4997944;28;20430;-82
2021/01/11 02:36:09;;;;;;;39.60;19.55;;;1.80;99.90;;;2.13;86.00;101275.53;4997992;28;20026;-82
2021/01/11 02:38:37;;;;;;;36.95;20.58;;;1.80;99.90;;;2.04;86.40;101267.06;4998073;28;20034;-81
2021/01/11 02:41:04;;;;;;;40.30;19.48;;;1.80;99.90;;;2.04;86.03;101267.06;5031789;23;20046;-85
2021/01/11 02:43:30;;;;;;;41.80;20.25;;;1.80;99.90;;;2.06;86.00;101255.72;5002454;28;20025;-88
2021/01/11 02:45:57;;;;;;;35.80;18.80;;;1.70;99.90;;;2.07;85.85;101262.91;5018344;28;20114;-87
2021/01/11 02:48:52;;;;;;;34.60;18.73;;;1.80;99.90;;;2.00;86.03;101278.94;5019859;28;20026;-86
2021/01/11 02:51:43;;;;;;;37.28;19.80;;;1.70;99.90;;;1.94;85.30;101271.81;5001776;28;20033;-85
2021/01/11 02:54:30;;;;;;;36.72;20.10;;;1.70;99.90;;;1.90;84.97;101271.56;5003698;28;20026;-83
2021/01/11 02:57:14;;;;;;;31.92;18.33;;;1.70;99.90;;;1.94;85.20;101252.53;5020896;28;20045;-84
2021/01/11 02:59:51;;;;;;;44.10;20.98;;;1.70;99.90;;;1.91;85.43;101255.84;5009001;28;20038;-83
2021/01/11 03:02:23;;;;;;;40.65;20.73;;;1.70;99.90;;;1.77;85.83;101250.16;4999295;28;20030;-83
2021/01/11 03:04:50;;;;;;;40.17;20.73;;;1.70;99.90;;;1.84;85.21;101253.41;4999382;28;20061;-82
2021/01/11 03:07:16;;;;;;;43.35;20.67;;;1.70;99.90;;;1.86;85.44;101253.94;5017934;28;20042;-82
2021/01/11 03:09:46;;;;;;;41.30;21.48;;;1.70;99.90;;;1.87;85.46;101252.84;4999368;28;20041;-82
2021/01/11 03:12:12;;;;;;;47.13;22.33;;;1.70;99.90;;;1.90;85.62;101245.94;4999969;28;20406;-82
2021/01/11 03:14:39;;;;;;;46.35;22.55;;;1.70;99.90;;;1.89;85.60;101255.31;5000107;28;20029;-83
2021/01/11 03:17:06;;;;;;;42.65;21.55;;;1.70;99.90;;;1.93;85.55;101256.38;5000487;28;20034;-82
2021/01/11 03:19:32;;;;;;;45.53;23.20;;;1.60;99.90;;;1.85;85.81;101263.34;5001150;28;20026;-83
2021/01/11 03:21:58;;;;;;;43.90;22.23;;;1.60;99.90;;;1.81;86.35;101256.75;5002060;28;20437;-84
2021/01/11 03:24:25;;;;;;;48.08;24.05;;;1.60;99.90;;;1.78;86.83;101265.56;5013842;28;20018;-84
2021/01/11 03:26:51;;;;;;;53.53;25.48;;;1.60;99.90;;;1.79;86.56;101260.91;5008325;28;20161;-83
2021/01/11 03:29:19;;;;;;;47.70;23.35;;;1.60;99.90;;;1.74;86.40;101249.88;5004690;28;20037;-84
2021/01/11 03:31:47;;;;;;;50.22;25.58;;;1.60;99.90;;;1.75;86.53;101243.28;5002995;28;20402;-82
2021/01/11 03:34:14;;;;;;;48.20;23.60;;;1.60;99.90;;;1.63;86.81;101240.06;5014869;28;20121;-82
2021/01/11 03:36:41;;;;;;;49.33;23.40;;;1.50;99.90;;;1.71;86.66;101232.00;4998344;28;20034;-82
2021/01/11 03:39:11;;;;;;;52.88;26.33;;;1.50;99.90;;;1.61;86.94;101223.81;5015901;28;20034;-82
2021/01/11 03:41:41;;;;;;;53.03;24.90;;;1.60;99.90;;;1.66;86.75;101215.53;4998080;28;20062;-81
2021/01/11 03:44:13;;;;;;;51.05;25.20;;;1.50;99.90;;;1.62;87.00;101216.38;4998497;28;20034;-82
2021/01/11 03:46:39;;;;;;;56.30;26.15;;;1.50;99.90;;;1.55;87.83;101217.53;5016125;28;20053;-82
2021/01/11 03:49:08;;;;;;;60.35;26.70;;;1.50;99.90;;;1.59;87.61;101210.34;4997836;28;20030;-82
2021/01/11 03:51:34;;;;;;;55.55;24.80;;;1.50;99.90;;;1.66;87.20;101212.78;4998681;28;20060;-83
2021/01/11 03:54:01;;;;;;;54.90;26.08;;;1.50;99.90;;;1.64;87.22;101205.91;4997831;28;20472;-84
2021/01/11 03:56:27;;;;;;;54.63;27.30;;;1.50;99.90;;;1.63;87.13;101201.50;4998320;28;20057;-83
2021/01/11 03:58:53;;;;;;;54.65;27.00;;;1.50;99.90;;;1.67;86.73;101202.59;4998195;28;20481;-83
2021/01/11 04:01:19;;;;;;;53.17;25.52;;;1.50;99.90;;;1.59;87.16;101207.59;4997958;28;20081;-83
2021/01/11 04:03:44;;;;;;;51.30;25.15;;;1.50;99.90;;;1.61;87.44;101209.25;4998759;28;20033;-82
2021/01/11 04:06:10;;;;;;;50.53;25.20;;;1.40;99.90;;;1.52;87.43;101207.09;4998304;28;20500;-82
2021/01/11 04:08:36;;;;;;;48.00;25.95;;;1.40;99.90;;;1.49;87.48;101202.16;4997798;28;20065;-82
2021/01/11 04:11:02;;;;;;;47.05;26.65;;;1.40;99.90;;;1.57;87.50;101198.78;4998545;28;20500;-81
2021/01/11 04:13:28;;;;;;;49.25;25.88;;;1.50;99.90;;;1.54;87.64;101204.84;5015471;28;20026;-83
2021/01/11 04:15:57;;;;;;;47.75;25.92;;;1.40;99.90;;;1.57;87.74;101206.25;5015531;28;20030;-81
2021/01/11 04:18:23;;;;;;;47.05;24.23;;;1.40;99.90;;;1.55;87.50;101203.75;5015384;28;20017;-82
2021/01/11 04:20:49;;;;;;;42.58;21.67;;;1.40;99.90;;;1.48;87.15;101207.91;4996363;28;20025;-81
2021/01/11 04:23:15;;;;;;;40.22;22.40;;;1.40;99.90;;;1.53;86.93;101205.97;4996807;28;20429;-83
2021/01/11 04:25:41;;;;;;;42.35;21.15;;;1.40;99.90;;;1.47;86.88;101200.78;4996621;28;20025;-82
2021/01/11 04:28:06;;;;;;;42.90;20.98;;;1.40;99.90;;;1.45;86.79;101203.81;4996807;28;20026;-83
2021/01/11 04:30:32;;;;;;;38.63;19.58;;;1.30;99.90;;;1.39;86.62;101206.88;4997053;28;20034;-83
2021/01/11 04:32:59;;;;;;;42.47;20.30;;;1.30;99.90;;;1.35;86.53;101201.09;4997249;28;20026;-84
2021/01/11 04:35:28;;;;;;;33.45;18.20;;;1.30;99.90;;;1.29;86.62;101205.00;4997314;28;20080;-83
2021/01/11 04:37:55;;;;;;;32.80;17.65;;;1.30;99.90;;;1.37;85.97;101203.59;4996986;28;20112;-83
2021/01/11 04:40:22;;;;;;;35.97;18.70;;;1.30;99.90;;;1.35;86.14;101209.38;4997406;28;20037;-82
2021/01/11 04:42:48;;;;;;;34.72;16.77;;;1.30;99.90;;;1.35;86.31;101217.63;4997223;28;20037;-82
2021/01/11 04:45:22;;;;;;;33.67;17.15;;;1.20;99.90;;;1.33;86.46;101221.78;4997608;28;20025;-83
2021/01/11 04:47:59;;;;;;;33.60;18.42;;;1.20;99.90;;;1.30;86.90;101233.34;4997732;28;20500;-84
2021/01/11 04:50:28;;;;;;;32.95;17.52;;;1.20;99.90;;;1.30;86.53;101227.84;5015428;28;20056;-82
2021/01/11 04:52:55;;;;;;;38.88;18.45;;;1.20;99.90;;;1.36;86.18;101226.72;4997767;28;20113;-83
2021/01/11 04:55:23;;;;;;;34.40;17.83;;;1.20;99.90;;;1.41;86.13;101218.44;5015821;28;20026;-84
2021/01/11 04:57:57;;;;;;;30.33;16.25;;;1.20;99.90;;;1.36;86.20;101215.69;4997967;28;20033;-83
2021/01/11 05:00:29;;;;;;;35.15;16.70;;;1.20;99.90;;;1.30;86.09;101201.16;4998346;28;20050;-82
2021/01/11 05:03:05;;;;;;;30.65;16.55;;;1.20;99.90;;;1.31;86.14;101183.53;4999873;28;20052;-83
2021/01/11 05:05:39;;;;;;;33.80;18.13;;;1.20;99.90;;;1.35;86.35;101194.81;5000758;28;20037;-84
2021/01/11 05:08:07;;;;;;;38.25;18.35;;;1.20;99.90;;;1.32;86.63;101204.44;4999361;28;20057;-83
2021/01/11 05:10:40;;;;;;;33.90;17.23;;;1.20;99.90;;;1.37;86.24;101214.59;4999635;28;20049;-85
2021/01/11 05:13:11;;;;;;;35.83;18.63;;;1.20;99.90;;;1.28;86.31;101210.81;5017435;28;20030;-84
2021/01/11 05:15:40;;;;;;;39.28;18.45;;;1.20;99.90;;;1.32;86.07;101212.69;4999868;28;20127;-83
2021/01/11 05:18:20;;;;;;;34.88;17.40;;;1.20;99.90;;;1.27;86.29;101189.88;4999813;28;20042;-84
2021/01/11 05:20:47;;;;;;;39.78;19.35;;;1.20;99.90;;;1.30;86.26;101198.41;5018297;28;20037;-82
2021/01/11 05:23:17;;;;;;;33.63;19.38;;;1.10;99.90;;;1.31;86.94;101193.72;5010374;28;20053;-83
2021/01/11 05:25:45;;;;;;;39.90;20.30;;;1.10;99.90;;;1.38;86.38;101205.25;5007604;28;20111;-82
2021/01/11 05:28:18;;;;;;;38.05;20.63;;;1.10;99.90;;;1.26;86.77;101207.50;5018180;28;20084;-84
2021/01/11 05:30:51;;;;;;;42.17;19.50;;;1.10;99.90;;;1.20;86.83;101206.69;4999925;28;20033;-83
2021/01/11 05:33:21;;;;;;;38.92;20.00;;;1.10;99.90;;;1.19;86.92;101207.00;5003718;28;20103;-86
2021/01/11 05:36:13;;;;;;;46.10;20.30;;;1.00;99.90;;;1.27;86.19;101201.72;5017389;28;20026;-84
2021/01/11 05:38:46;;;;;;;42.20;20.77;;;1.10;99.90;;;1.19;86.74;101216.06;4999986;28;20037;-87
2021/01/11 05:41:22;;;;;;;38.42;19.63;;;1.00;99.90;;;1.19;86.94;101213.31;5000034;28;20041;-84
2021/01/11 05:44:09;;;;;;;47.88;21.92;;;1.00;99.90;;;1.19;87.23;101223.50;5000010;28;20030;-86
2021/01/11 05:46:35;;;;;;;42.90;21.38;;;1.00;99.90;;;1.23;86.86;101208.06;4999587;28;20140;-84
2021/01/11 05:49:04;;;;;;;39.97;20.13;;;1.00;99.90;;;1.26;86.34;101213.00;4999692;28;20046;-86
2021/01/11 05:51:34;;;;;;;41.42;19.77;;;1.00;99.90;;;1.21;86.85;101210.28;4999419;28;20034;-87
2021/01/11 05:54:05;;;;;;;40.92;21.38;;;1.00;99.90;;;1.20;86.95;101212.19;5016973;28;20084;-84
2021/01/11 05:56:54;;;;;;;44.58;21.58;;;1.00;99.90;;;1.27;86.68;101209.16;4999806;28;20113;-88
2021/01/11 05:59:21;;;;;;;43.97;20.90;;;1.00;99.90;;;1.21;87.27;101202.84;5000141;28;20022;-86
2021/01/11 06:02:00;;;;;;;41.63;21.60;;;0.90;99.90;;;1.28;86.96;101200.63;5000645;28;20366;-87
2021/01/11 06:04:27;;;;;;;39.78;22.10;;;1.00;99.90;;;1.16;87.14;101191.84;5022303;28;20037;-86
2021/01/11 06:06:55;;;;;;;47.63;22.05;;;1.00;99.90;;;1.24;87.52;101196.78;5028873;28;20088;-86
2021/01/11 06:09:25;;;;;;;46.28;23.23;;;1.00;99.90;;;1.22;87.64;101198.19;5029751;28;20056;-83
2021/01/11 06:11:55;;;;;;;44.30;22.42;;;1.00;99.90;;;1.13;87.76;101184.16;5008126;28;20038;-87
2021/01/11 06:14:24;;;;;;;41.38;22.10;;;1.00;99.90;;;1.07;88.36;101188.06;5002681;28;20033;-86
2021/01/11 06:16:50;;;;;;;45.00;22.48;;;0.90;99.90;;;1.03;88.36;101189.72;5020254;28;20056;-89
2021/01/11 06:19:16;;;;;;;42.03;21.60;;;0.90;99.90;;;0.95;89.30;101174.63;5000439;28;20037;-87
2021/01/11 06:22:00;;;;;;;41.03;20.17;;;0.90;99.90;;;0.96;89.42;101180.97;4999364;28;20095;-85
2021/01/11 06:24:26;;;;;;;48.95;21.52;;;0.90;99.90;;;1.06;89.09;101180.88;5016861;28;20044;-85
2021/01/11 06:26:52;;;;;;;41.97;21.45;;;0.90;99.90;;;1.02;88.91;101183.41;4999503;28;20062;-85
2021/01/11 06:29:33;;;;;;;42.88;20.70;;;0.90;99.90;;;1.11;89.11;101183.63;4998871;28;20041;-85
2021/01/11 06:32:22;;;;;;;45.05;21.85;;;0.90;99.90;;;1.14;88.94;101166.56;4999566;28;20034;-82
2021/01/11 06:34:48;;;;;;;43.50;21.10;;;0.90;99.90;;;1.13;89.19;101164.91;4999383;28;20040;-86
2021/01/11 06:37:22;;;;;;;42.53;21.00;;;0.90;99.90;;;1.08;89.43;101161.38;5017101;28;20088;-84
2021/01/11 06:39:50;;;;;;;43.35;21.73;;;0.90;99.90;;;1.10;89.34;101148.13;5017089;28;20113;-83
2021/01/11 06:42:18;;;;;;;50.25;22.40;;;0.90;99.90;;;0.96;90.33;101145.22;5016294;28;20033;-84
2021/01/11 06:44:49;;;;;;;40.28;20.58;;;0.90;99.90;;;1.01;90.04;101147.91;4997855;28;20084;-84
2021/01/11 06:47:30;;;;;;;44.92;22.08;;;0.90;99.90;;;0.96;90.57;101153.47;4998492;28;20033;-83
2021/01/11 06:50:06;;;;;;;46.97;21.45;;;0.90;99.90;;;1.03;90.36;101143.78;5015869;28;20080;-85
2021/01/11 06:52:38;;;;;;;44.70;21.42;;;0.90;99.90;;;1.09;89.63;101141.84;4998064;28;20083;-82
2021/01/11 06:55:17;;;;;;;51.90;24.27;;;0.90;99.90;;;1.07;89.83;101138.53;4997357;28;20034;-85
2021/01/11 06:57:57;;;;;;;44.92;20.60;;;0.90;99.90;;;1.14;90.21;101144.56;5015780;28;20030;-83
2021/01/11 07:00:38;;;;;;;43.42;21.92;;;0.90;99.90;;;1.17;89.77;101143.97;5017128;28;20076;-86
2021/01/11 07:03:07;;;;;;;43.65;21.17;;;0.90;99.90;;;1.19;89.59;101152.75;5000800;28;20042;-85
2021/01/11 07:05:33;;;;;;;49.05;22.33;;;1.00;99.90;;;1.20;90.32;101148.09;5001359;28;20029;-83
2021/01/11 07:08:18;;;;;;;43.20;22.52;;;1.00;99.90;;;1.12;90.17;101133.03;5017180;28;20037;-84
2021/01/11 07:10:46;;;;;;;45.05;21.65;;;1.00;99.90;;;1.11;90.31;101138.78;4999847;28;20112;-83
2021/01/11 07:13:18;;;;;;;44.60;21.50;;;1.00;99.90;;;1.17;90.23;101137.66;4998264;28;20072;-84
2021/01/11 07:15:53;;;;;;;37.90;19.67;;;1.00;99.90;;;1.24;90.18;101121.66;4998441;28;20033;-82
2021/01/11 07:18:37;;;;;;;45.22;21.55;;;1.10;99.90;;;1.20;91.00;101129.66;5017100;28;20029;-81
2021/01/11 07:21:15;;;;;;;43.88;21.30;;;1.10;99.90;;;1.33;90.20;101136.47;5015465;28;20092;-85
2021/01/11 07:23:43;;;;;;;41.88;21.70;;;1.10;99.90;;;1.30;90.72;101145.28;5015901;28;20029;-82
2021/01/11 07:26:23;;;;;;;41.40;20.25;;;1.10;99.90;;;1.41;90.58;101139.41;5015590;28;20026;-82
2021/01/11 07:29:19;;;;;;;43.22;20.00;;;1.10;99.90;;;1.39;90.91;101147.16;4997951;28;20026;-83
2021/01/11 07:31:48;;;;;;;42.13;20.90;;;1.20;99.90;;;1.34;91.09;101143.63;4998833;28;20148;-84
2021/01/11 07:34:22;;;;;;;47.10;22.08;;;1.20;99.90;;;1.33;91.29;101140.03;4998471;28;20025;-83
2021/01/11 07:36:52;;;;;;;44.35;20.88;;;1.20;99.90;;;1.40;91.28;101131.47;5003092;28;20440;-84
2021/01/11 07:39:30;;;;;;;44.67;21.00;;;1.20;99.90;;;1.47;90.87;101119.03;5017116;28;20087;-83
2021/01/11 07:42:07;;;;;;;44.83;22.70;;;1.20;99.90;;;1.45;90.98;101123.16;5017279;28;20359;-84
2021/01/11 07:44:42;;;;;;;45.45;22.33;;;1.30;99.90;;;1.45;91.35;101134.16;5002201;28;20041;-85
2021/01/11 07:47:12;;;;;;;44.58;20.50;;;1.30;99.90;;;1.47;91.38;101143.81;5009953;28;20014;-84
2021/01/11 07:49:48;;;;;;;40.58;22.70;;;1.30;99.90;;;1.42;92.09;101143.81;5034625;28;20044;-84
2021/01/11 07:52:21;;;;;;;45.22;21.80;;;1.30;99.90;;;1.42;92.40;101140.25;5018625;28;20033;-85
2021/01/11 07:55:03;;;;;;;46.88;21.35;;;1.30;99.90;;;1.51;91.91;101144.03;4999807;28;20056;-84
2021/01/11 07:57:32;;;;;;;41.25;21.67;;;1.30;99.90;;;1.50;92.27;101131.41;4999814;28;20072;-82
2021/01/11 08:00:11;;;;;;;48.10;23.15;;;1.30;99.90;;;1.51;92.37;101122.00;4999773;28;20034;-85
2021/01/11 08:02:39;;;;;;;44.20;22.38;;;1.30;99.90;;;1.46;92.66;101127.56;4999827;28;20033;-84
2021/01/11 08:05:23;;;;;;;40.83;21.80;;;1.30;99.90;;;1.37;92.83;101121.84;4999727;28;20034;-86
2021/01/11 08:08:02;;;;;;;42.78;22.48;;;1.30;99.90;;;1.50;92.59;101112.94;4999191;28;20034;-85
2021/01/11 08:10:32;;;;;;;48.00;21.27;;;1.30;99.90;;;1.56;91.92;101099.97;5000270;28;20053;-85
2021/01/11 08:13:07;;;;;;;51.35;23.83;;;1.30;99.90;;;1.52;92.46;101096.97;5001486;28;20034;-84
2021/01/11 08:15:33;;;;;;;43.45;22.25;;;1.30;99.90;;;1.49;92.10;101105.78;5002629;28;20033;-84
2021/01/11 08:18:02;;;;;;;46.72;22.85;;;1.40;99.90;;;1.53;91.96;101104.13;5002293;28;20034;-84
2021/01/11 08:20:28;;;;;;;40.67;20.13;;;1.40;99.90;;;1.51;91.76;101097.22;5001951;28;20033;-86
2021/01/11 08:22:55;;;;;;;41.47;22.58;;;1.40;99.90;;;1.58;91.63;101097.72;5001942;28;20033;-85
2021/01/11 08:25:25;;;;;;;42.33;22.42;;;1.40;99.90;;;1.59;91.07;101094.72;5001152;28;20044;-84
2021/01/11 08:27:53;;;;;;;41.67;21.20;;;1.50;99.90;;;1.50;91.34;101093.69;5001762;28;20061;-86
2021/01/11 08:30:24;;;;;;;38.35;19.42;;;1.40;99.90;;;1.64;90.97;101093.81;5001228;28;20507;-86
2021/01/11 08:32:51;;;;;;;40.08;20.95;;;1.40;99.90;;;1.69;90.60;101088.28;5000741;28;20282;-84
2021/01/11 08:35:22;;;;;;;38.17;19.00;;;1.40;99.90;;;1.77;90.07;101082.16;5000328;28;20129;-85
2021/01/11 08:37:49;;;;;;;37.50;18.70;;;1.50;99.90;;;1.82;89.75;101090.38;5018891;28;20112;-84
2021/01/11 08:40:38;;;;;;;33.90;18.58;;;1.50;99.90;;;1.77;89.65;101078.56;5001857;28;20041;-85
2021/01/11 08:43:13;;;;;;;37.83;19.20;;;1.60;99.90;;;1.87;89.29;101081.22;5078195;22;20121;-85
2021/01/11 08:45:42;;;;;;;25.42;14.00;;;1.60;99.90;;;1.79;89.51;101068.94;5065686;28;20070;-86
2021/01/11 08:48:16;;;;;;;34.08;17.70;;;1.60;99.90;;;1.79;89.62;101054.34;5049024;28;20557;-87
2021/01/11 08:50:58;;;;;;;36.42;17.80;;;1.60;99.90;;;1.73;90.17;101056.31;5048480;28;20029;-87
2021/01/11 08:53:43;;;;;;;32.65;16.83;;;1.60;99.90;;;1.78;89.49;101066.44;5041216;28;20120;-84
2021/01/11 08:56:09;;;;;;;38.67;18.63;;;1.60;99.90;;;1.86;89.15;101060.31;5018086;28;20029;-85
2021/01/11 08:58:53;;;;;;;33.05;17.65;;;1.60;99.90;;;1.85;89.58;101062.25;5018819;28;20029;-88
2021/01/11 09:01:25;;;;;;;29.33;16.00;;;1.70;99.90;;;1.81;89.29;101047.41;5024496;28;20072;-87
2021/01/11 09:04:03;;;;;;;33.03;17.10;;;1.70;99.90;;;1.74;89.55;101044.19;5029063;28;20021;-85
2021/01/11 09:07:05;;;;;;;34.65;18.48;;;1.70;99.90;;;1.79;89.85;101054.34;5028784;28;20037;-84
2021/01/11 09:09:36;;;;;;;34.30;17.27;;;1.70;99.90;;;1.86;89.18;101054.81;5038787;28;20121;-85
2021/01/11 09:12:08;;;;;;;32.25;17.65;;;1.70;99.90;;;1.81;89.59;101044.66;5042636;28;20033;-85
2021/01/11 09:15:01;;;;;;;32.40;17.15;;;1.70;99.90;;;1.98;88.49;101050.56;5052470;28;20026;-86
2021/01/11 09:17:30;;;;;;;31.85;16.55;;;1.80;99.90;;;1.92;88.40;101048.97;5010877;28;20033;-86
2021/01/11 09:20:05;;;;;;;32.40;16.23;;;1.80;99.90;;;2.02;88.56;101051.59;5023105;28;20522;-85
2021/01/11 09:22:40;;;;;;;30.23;16.70;;;1.90;99.90;;;1.97;88.83;101035.13;5023142;28;20074;-87
2021/01/11 09:25:11;;;;;;;27.27;16.17;;;1.90;99.90;;;1.92;88.84;101029.69;5038933;28;20044;-82
2021/01/11 09:27:40;;;;;;;28.95;16.67;;;1.90;99.90;;;2.08;88.88;101028.41;5027671;28;20373;-81
2021/01/11 09:30:09;;;;;;;30.83;16.58;;;1.90;99.90;;;2.04;88.72;101026.53;5015696;28;20030;-84
2021/01/11 09:32:39;;;;;;;33.22;18.15;;;1.90;99.90;;;1.97;88.87;101045.31;5019655;28;20126;-81
2021/01/11 09:35:06;;;;;;;31.58;17.50;;;1.90;99.90;;;2.18;88.51;101073.50;5002837;28;20030;-84
2021/01/11 09:37:32;;;;;;;28.40;15.70;;;2.00;99.90;;;2.20;87.88;101074.84;5003687;28;20093;-85
2021/01/11 09:39:58;;;;;;;34.83;17.95;;;2.00;99.90;;;2.24;87.78;101069.56;5004174;28;20504;-83
2021/01/11 09:42:24;;;;;;;29.70;16.48;;;2.00;99.90;;;2.11;87.92;101082.09;5002792;28;20113;-81
2021/01/11 09:44:49;;;;;;;34.88;16.40;;;2.00;99.90;;;2.19;87.85;101070.44;5003127;28;20399;-84
2021/01/11 09:47:15;;;;;;;33.75;17.58;;;2.00;99.90;;;2.14;87.45;101076.00;5010274;28;20040;-82
2021/01/11 09:49:41;;;;;;;30.95;15.75;;;2.00;99.90;;;2.18;87.92;101068.81;5018615;28;20044;-83
2021/01/11 09:52:09;;;;;;;29.95;16.30;;;2.00;99.90;;;2.23;86.52;101067.91;5026841;28;20037;-84
2021/01/11 09:54:35;;;;;;;34.75;17.23;;;1.90;99.90;;;2.23;86.87;101078.94;5022090;28;20029;-83
2021/01/11 09:57:01;;;;;;;29.90;16.38;;;2.00;99.90;;;2.29;86.77;101103.41;5017427;28;20091;-86
2021/01/11 09:59:27;;;;;;;33.92;16.98;;;2.00;99.90;;;2.25;85.79;101085.81;5013544;28;20048;-84
2021/01/11 10:01:54;;;;;;;30.33;16.75;;;2.00;99.90;;;2.18;86.54;101082.59;5037193;28;20048;-83
2021/01/11 10:04:20;;;;;;;32.97;16.92;;;2.00;99.90;;;2.19;85.98;101078.69;5036757;28;20108;-84
2021/01/11 10:06:56;;;;;;;27.45;15.57;;;2.00;99.90;;;2.19;86.21;101086.13;5020285;28;20460;-85
2021/01/11 10:09:25;;;;;;;;;;;2.00;99.90;;;2.23;86.19;101089.97;5020345;28;20096;-83
2021/01/11 10:11:55;;;;;;;31.60;14.10;;;2.00;99.90;;;2.10;86.16;101086.78;5037898;28;19916;-84
2021/01/11 10:14:23;;;;;;;33.42;15.57;;;2.00;99.90;;;2.12;86.21;101072.72;5020919;28;20036;-85
2021/01/11 10:16:50;;;;;;;30.35;14.98;;;1.90;99.90;;;2.12;86.23;101079.03;5039784;28;20029;-85
2021/01/11 10:19:23;;;;;;;27.95;15.10;;;1.90;99.90;;;2.21;85.39;101070.16;5020656;28;20033;-83
2021/01/11 10:21:50;;;;;;;29.67;15.13;;;1.90;99.90;;;2.23;85.16;101068.75;5038812;28;20108;-84
2021/01/11 10:24:20;;;;;;;27.23;13.65;;;2.00;99.90;;;2.26;85.78;101061.81;5021017;28;20029;-84
2021/01/11 10:26:50;;;;;;;25.45;14.77;;;2.00;99.90;;;2.16;85.90;101068.25;5020367;28;20030;-84
2021/01/11 10:29:23;;;;;;;27.17;13.20;;;2.00;99.90;;;2.28;85.35;101068.69;5017541;28;20033;-83